Time;durP1;ratioP1;P1;durP2;ratioP2;P2;SDS_P1;SDS_P2;PMS_P1;PMS_P2;Temp;Humidity;BMP_temperature;BMP_pressure;BME280_temperature;BME280_humidity;BME280_pressure;Samples;Min_cycle;Max_cycle;Signal;HPM_P1;HPM_P2
2023/03/08 00:00:09;;;;;;;19.42;13.02;;;3.60;99.90;;;;;;5034845;28;20022;-51
2023/03/08 00:02:35;;;;;;;22.00;13.07;;;3.60;99.90;;;;;;5034537;28;20036;-51
2023/03/08 00:05:01;;;;;;;23.17;14.00;;;3.50;99.90;;;;;;5034651;28;20034;-53
2023/03/08 00:07:26;;;;;;;19.52;12.93;;;3.50;99.90;;;;;;5034683;28;20425;-52
2023/03/08 00:09:52;;;;;;;21.45;13.93;;;3.50;99.90;;;;;;5034636;28;20097;-51
2023/03/08 00:12:18;;;;;;;16.38;11.73;;;3.50;99.90;;;;;;5034356;28;20041;-52
2023/03/08 00:14:44;;;;;;;23.65;13.95;;;3.50;99.90;;;;;;5034305;28;20057;-53
2023/03/08 00:17:11;;;;;;;20.60;13.75;;;3.40;99.90;;;;;;5034440;28;20053;-52
2023/03/08 00:19:37;;;;;;;25.63;14.55;;;3.50;99.90;;;;;;5034132;28;20028;-54
2023/03/08 00:22:03;;;;;;;23.60;14.45;;;3.50;99.90;;;;;;5034487;28;20022;-53
2023/03/08 00:24:30;;;;;;;25.08;15.32;;;3.40;99.90;;;;;;5034217;28;20025;-52
2023/03/08 00:26:55;;;;;;;26.70;14.45;;;3.40;99.90;;;;;;5034532;28;20030;-51
2023/03/08 00:29:21;;;;;;;22.65;15.55;;;3.40;99.90;;;;;;5034214;28;20040;-55
2023/03/08 00:31:47;;;;;;;25.38;15.23;;;3.30;99.90;;;;;;5033957;28;20376;-51
2023/03/08 00:34:13;;;;;;;26.25;15.77;;;3.30;99.90;;;;;;5034274;28;20022;-52
2023/03/08 00:36:38;;;;;;;22.02;15.63;;;3.30;99.90;;;;;;5034087;28;20103;-54
2023/03/08 00:39:04;;;;;;;24.92;14.85;;;3.30;99.90;;;;;;5034061;28;20030;-51
2023/03/08 00:41:30;;;;;;;27.02;15.45;;;3.30;99.90;;;;;;5033994;28;20471;-53
2023/03/08 00:43:56;;;;;;;20.98;14.13;;;3.30;99.90;;;;;;5033939;28;20044;-52
2023/03/08 00:46:23;;;;;;;23.13;14.93;;;3.40;99.90;;;;;;5033732;28;20120;-55
2023/03/08 00:48:48;;;;;;;23.48;14.65;;;3.40;99.90;;;;;;5033862;28;20013;-51
2023/03/08 00:51:15;;;;;;;30.90;15.40;;;3.30;99.90;;;;;;5034128;28;20051;-52
2023/03/08 00:53:41;;;;;;;26.58;16.02;;;3.20;99.90;;;;;;5033623;28;20064;-52
2023/03/08 00:56:06;;;;;;;27.15;16.23;;;3.30;99.90;;;;;;5033678;28;20057;-51
2023/03/08 00:58:32;;;;;;;24.08;16.13;;;3.30;99.90;;;;;;5033429;28;20025;-53
2023/03/08 01:00:58;;;;;;;27.25;16.98;;;3.30;99.90;;;;;;5033479;28;20457;-52
2023/03/08 01:03:24;;;;;;;24.17;15.93;;;3.20;99.90;;;;;;5032229;28;20053;-51
2023/03/08 01:05:53;;;;;;;26.42;17.20;;;3.20;99.90;;;;;;5033641;28;20041;-53
2023/03/08 01:08:21;;;;;;;32.38;18.55;;;3.20;99.90;;;;;;5033643;28;20021;-52
2023/03/08 01:10:51;;;;;;;30.60;17.15;;;3.20;99.90;;;;;;5033157;28;20393;-53
2023/03/08 01:13:19;;;;;;;30.77;16.60;;;3.20;99.90;;;;;;5033351;28;20415;-53
2023/03/08 01:15:44;;;;;;;24.52;16.67;;;3.20;99.90;;;;;;5033159;28;20025;-54
2023/03/08 01:18:10;;;;;;;27.85;15.32;;;3.20;99.90;;;;;;5033369;28;20029;-51
2023/03/08 01:20:36;;;;;;;22.38;14.63;;;3.30;99.90;;;;;;5033180;28;20030;-52
2023/03/08 01:23:01;;;;;;;27.30;16.27;;;3.30;99.90;;;;;;5033088;28;20025;-51
2023/03/08 01:25:27;;;;;;;28.42;16.88;;;3.30;99.90;;;;;;5032999;28;20033;-52
2023/03/08 01:27:53;;;;;;;23.05;14.27;;;3.30;99.90;;;;;;5033006;28;20036;-54
2023/03/08 01:30:19;;;;;;;25.27;15.85;;;3.30;99.90;;;;;;5033036;28;20112;-53
2023/03/08 01:32:45;;;;;;;20.65;13.95;;;3.30;99.90;;;;;;5033038;28;20032;-52
2023/03/08 01:35:11;;;;;;;22.30;15.05;;;3.30;99.90;;;;;;5032918;28;20376;-54
2023/03/08 01:37:36;;;;;;;26.63;15.27;;;3.30;99.90;;;;;;5032769;28;20017;-53
2023/03/08 01:40:04;;;;;;;27.33;15.52;;;3.20;99.90;;;;;;5032938;28;20025;-51
2023/03/08 01:42:30;;;;;;;24.02;14.85;;;3.00;99.90;;;;;;5032744;28;20022;-52
2023/03/08 01:45:03;;;;;;;29.08;15.35;;;2.90;99.90;;;;;;5032703;28;20018;-54
2023/03/08 01:47:31;;;;;;;23.67;15.17;;;2.80;99.90;;;;;;5032604;28;20041;-53
2023/03/08 01:50:04;;;;;;;22.85;15.20;;;2.60;99.90;;;;;;5031549;28;20030;-52
2023/03/08 01:52:37;;;;;;;27.35;15.20;;;2.50;99.90;;;;;;5032576;28;20020;-56
2023/03/08 01:55:07;;;;;;;28.63;15.35;;;2.50;99.90;;;;;;5032537;28;20022;-52
2023/03/08 01:57:36;;;;;;;23.30;14.65;;;2.40;99.90;;;;;;5034267;28;20040;-52
2023/03/08 02:00:16;;;;;;;25.13;15.50;;;2.30;99.90;;;;;;5051302;28;20431;-51
2023/03/08 02:02:49;;;;;;;26.08;16.90;;;2.40;99.90;;;;;;5052337;28;20025;-53
2023/03/08 02:05:16;;;;;;;24.52;16.17;;;2.20;99.90;;;;;;5052375;28;20024;-52
2023/03/08 02:07:41;;;;;;;26.65;16.40;;;2.20;99.90;;;;;;5052061;28;20022;-54
2023/03/08 02:10:08;;;;;;;23.73;15.75;;;2.20;99.90;;;;;;5052173;28;20051;-52
2023/03/08 02:12:35;;;;;;;28.77;15.93;;;2.20;99.90;;;;;;5051701;28;20033;-53
2023/03/08 02:15:03;;;;;;;35.25;16.38;;;2.20;99.90;;;;;;5052197;28;20401;-53
2023/03/08 02:17:30;;;;;;;22.15;15.07;;;2.20;99.90;;;;;;5052262;28;20399;-51
2023/03/08 02:20:12;;;;;;;26.50;16.27;;;2.20;99.90;;;;;;5051706;28;20407;-51
2023/03/08 02:22:45;;;;;;;24.90;16.20;;;2.10;99.90;;;;;;5052216;28;20036;-53
2023/03/08 02:25:20;;;;;;;25.45;16.05;;;2.00;99.90;;;;;;5052035;28;20025;-52
2023/03/08 02:27:47;;;;;;;28.02;15.48;;;1.90;99.90;;;;;;5051879;28;20461;-52
2023/03/08 02:30:15;;;;;;;33.70;17.23;;;1.90;99.90;;;;;;5052035;28;20052;-52
2023/03/08 02:32:41;;;;;;;25.00;15.50;;;1.80;99.90;;;;;;5051611;28;20021;-51
2023/03/08 02:35:07;;;;;;;25.13;15.90;;;1.80;99.90;;;;;;5051818;28;20077;-53
2023/03/08 02:37:33;;;;;;;26.92;17.05;;;1.80;99.90;;;;;;5051721;28;20025;-53
2023/03/08 02:39:58;;;;;;;31.88;17.70;;;1.80;99.90;;;;;;5051821;28;20032;-52
2023/03/08 02:42:24;;;;;;;28.90;16.55;;;1.90;99.90;;;;;;5051559;28;20044;-51
2023/03/08 02:44:50;;;;;;;29.33;17.27;;;1.80;99.90;;;;;;5050439;28;20024;-51
2023/03/08 02:47:16;;;;;;;28.77;17.05;;;1.70;99.90;;;;;;5051858;28;20029;-51
2023/03/08 02:49:41;;;;;;;28.23;17.52;;;1.70;99.90;;;;;;5051435;28;20029;-52
2023/03/08 02:52:07;;;;;;;26.98;16.92;;;1.70;99.90;;;;;;5051678;28;20029;-51
2023/03/08 02:54:32;;;;;;;27.83;17.35;;;1.70;99.90;;;;;;5051493;28;20049;-52
2023/03/08 02:56:58;;;;;;;32.42;17.85;;;1.60;99.90;;;;;;5051424;28;20029;-52
2023/03/08 02:59:25;;;;;;;30.90;19.40;;;1.60;99.90;;;;;;5051447;28;20025;-53
2023/03/08 03:01:51;;;;;;;27.85;17.23;;;1.50;99.90;;;;;;5051441;28;20373;-51
2023/03/08 03:04:17;;;;;;;28.92;17.55;;;1.60;99.90;;;;;;5051535;28;20029;-52
2023/03/08 03:06:42;;;;;;;30.23;17.63;;;1.60;99.90;;;;;;5051245;28;20036;-51
2023/03/08 03:09:09;;;;;;;30.77;17.75;;;1.60;99.90;;;;;;5051242;28;20029;-51
2023/03/08 03:11:34;;;;;;;33.85;18.48;;;1.50;99.90;;;;;;5049799;28;20071;-53
2023/03/08 03:14:00;;;;;;;22.95;16.20;;;1.50;99.90;;;;;;5051336;28;20044;-52
2023/03/08 03:16:27;;;;;;;32.20;17.80;;;1.40;99.90;;;;;;5049680;28;20598;-52
2023/03/08 03:18:54;;;;;;;28.77;18.45;;;1.40;99.90;;;;;;5051470;28;20057;-51
2023/03/08 03:21:21;;;;;;;31.27;18.02;;;1.40;99.90;;;;;;5051301;28;20029;-52
2023/03/08 03:23:47;;;;;;;30.77;18.35;;;1.40;99.90;;;;;;5053459;28;20029;-52
2023/03/08 03:26:15;;;;;;;39.28;24.17;;;1.40;99.90;;;;;;5053812;28;20346;-51
2023/03/08 03:28:41;;;;;;;50.30;38.90;;;1.40;99.90;;;;;;5055214;28;20061;-53
2023/03/08 03:31:13;;;;;;;32.70;20.90;;;1.50;99.90;;;;;;5055350;28;20522;-51
2023/03/08 03:33:39;;;;;;;35.58;17.48;;;1.60;99.90;;;;;;5055084;28;20154;-52
2023/03/08 03:36:33;;;;;;;29.10;17.13;;;1.70;99.90;;;;;;5055258;28;20076;-52
2023/03/08 03:38:58;;;;;;;;;;;1.90;99.90;;;;;;5055361;28;20404;-52
2023/03/08 03:41:24;;;;;;;25.90;16.67;;;2.00;99.90;;;;;;5054829;28;19904;-53
2023/03/08 03:43:50;;;;;;;31.00;16.30;;;2.10;99.90;;;;;;5055073;28;20036;-52
2023/03/08 03:46:17;;;;;;;30.92;16.58;;;2.10;99.90;;;;;;5054225;28;20116;-52
2023/03/08 03:48:43;;;;;;;25.52;16.73;;;2.20;99.90;;;;;;5054379;28;20029;-54
2023/03/08 03:51:12;;;;;;;28.85;16.63;;;2.20;99.90;;;;;;5054596;28;20025;-52
2023/03/08 03:53:38;;;;;;;24.95;15.95;;;2.30;99.90;;;;;;5054666;28;20029;-55
2023/03/08 03:56:12;;;;;;;24.73;15.23;;;2.40;99.90;;;;;;5054688;28;20033;-54
2023/03/08 03:58:38;;;;;;;25.13;17.33;;;2.40;99.90;;;;;;5054799;28;20025;-52
2023/03/08 04:01:16;;;;;;;26.90;15.15;;;2.40;99.90;;;;;;5054918;28;20028;-52
2023/03/08 04:03:42;;;;;;;30.98;15.82;;;2.30;99.90;;;;;;5054596;28;20306;-54
2023/03/08 04:06:11;;;;;;;25.38;15.73;;;2.30;99.90;;;;;;5054653;28;20033;-52
2023/03/08 04:08:42;;;;;;;31.52;16.63;;;2.20;99.90;;;;;;5053080;28;20025;-53
2023/03/08 04:11:15;;;;;;;22.75;15.48;;;2.20;99.90;;;;;;5054115;28;20049;-53
2023/03/08 04:13:41;;;;;;;24.52;14.80;;;2.20;99.90;;;;;;5053868;28;20075;-52
2023/03/08 04:16:24;;;;;;;27.85;15.43;;;2.10;99.90;;;;;;5053943;28;20036;-52
2023/03/08 04:18:55;;;;;;;27.23;16.55;;;2.00;99.90;;;;;;5054227;28;20052;-53
2023/03/08 04:21:22;;;;;;;27.42;15.85;;;1.90;99.90;;;;;;5054161;28;20036;-52
2023/03/08 04:23:48;;;;;;;31.95;16.92;;;1.80;99.90;;;;;;5053801;28;20032;-52
2023/03/08 04:26:13;;;;;;;28.13;15.20;;;1.70;99.90;;;;;;5054152;28;20049;-52
2023/03/08 04:28:40;;;;;;;32.65;16.35;;;1.60;99.90;;;;;;5053675;28;20057;-52
2023/03/08 04:31:22;;;;;;;19.70;14.23;;;1.50;99.90;;;;;;5053962;28;20025;-52
2023/03/08 04:33:48;;;;;;;25.48;14.80;;;1.40;99.90;;;;;;5053472;28;20060;-53
2023/03/08 04:36:15;;;;;;;23.55;15.02;;;1.30;99.90;;;;;;5053937;28;20025;-52
2023/03/08 04:38:42;;;;;;;27.02;15.27;;;1.30;99.90;;;;;;5053769;28;20021;-52
2023/03/08 04:41:14;;;;;;;23.73;14.30;;;1.30;99.90;;;;;;5054000;28;20033;-52
2023/03/08 04:43:43;;;;;;;26.90;14.88;;;1.20;99.90;;;;;;5053769;28;20024;-52
2023/03/08 04:46:09;;;;;;;27.80;16.25;;;1.10;99.90;;;;;;5053967;28;20020;-53
2023/03/08 04:48:35;;;;;;;23.98;14.73;;;1.00;99.90;;;;;;5053671;28;20051;-52
2023/03/08 04:51:03;;;;;;;25.90;14.88;;;1.00;99.90;;;;;;5053943;28;20024;-53
2023/03/08 04:53:30;;;;;;;24.38;15.38;;;0.90;99.90;;;;;;5053754;28;20414;-52
2023/03/08 04:55:56;;;;;;;29.35;17.15;;;0.90;99.90;;;;;;5053638;28;20083;-52
2023/03/08 04:58:21;;;;;;;28.08;15.57;;;0.90;99.90;;;;;;5053523;28;20427;-54
2023/03/08 05:00:47;;;;;;;32.05;15.88;;;0.90;99.90;;;;;;5053422;28;20033;-52
2023/03/08 05:03:13;;;;;;;45.15;18.02;;;0.80;99.90;;;;;;5053580;28;20108;-53
2023/03/08 05:05:51;;;;;;;27.40;15.52;;;0.80;99.90;;;;;;5053317;28;20029;-52
2023/03/08 05:08:17;;;;;;;32.38;16.73;;;0.70;99.90;;;;;;5053338;28;20032;-52
2023/03/08 05:10:54;;;;;;;38.28;16.73;;;0.70;99.90;;;;;;5052872;28;20048;-51
2023/03/08 05:13:19;;;;;;;43.97;15.13;;;0.60;99.90;;;;;;5053176;28;20070;-52
2023/03/08 05:15:45;;;;;;;29.13;15.80;;;0.50;99.90;;;;;;5052833;28;20484;-52
2023/03/08 05:18:11;;;;;;;33.47;16.45;;;0.50;99.90;;;;;;5052760;28;20036;-53
2023/03/08 05:20:37;;;;;;;40.92;17.02;;;0.40;99.90;;;;;;5052820;28;20465;-56
2023/03/08 05:23:02;;;;;;;33.38;18.00;;;0.40;99.90;;;;;;5052565;28;20108;-54
2023/03/08 05:25:29;;;;;;;54.22;17.27;;;0.30;99.90;;;;;;5052713;28;20111;-52
2023/03/08 05:27:55;;;;;;;29.85;16.88;;;0.30;99.90;;;;;;5053003;28;20090;-56
2023/03/08 05:30:21;;;;;;;31.52;15.93;;;0.20;99.90;;;;;;5053076;28;20029;-52
2023/03/08 05:32:46;;;;;;;26.48;15.48;;;0.20;99.90;;;;;;5052817;28;20537;-53
2023/03/08 05:35:12;;;;;;;26.77;15.85;;;0.20;99.90;;;;;;5052589;28;20376;-54
2023/03/08 05:37:38;;;;;;;32.28;15.52;;;0.10;99.90;;;;;;5052619;28;20021;-52
2023/03/08 05:40:05;;;;;;;33.28;17.55;;;0.00;99.90;;;;;;5052406;28;20025;-53
2023/03/08 05:42:32;;;;;;;36.35;17.40;;;-0.10;99.90;;;;;;5052011;28;20028;-54
2023/03/08 05:44:58;;;;;;;31.60;17.38;;;-0.10;99.90;;;;;;5052373;28;20094;-52
2023/03/08 05:47:24;;;;;;;28.83;16.92;;;-0.10;99.90;;;;;;5050707;28;20513;-55
2023/03/08 05:49:50;;;;;;;33.20;17.17;;;-0.10;99.90;;;;;;5051219;28;20025;-53
2023/03/08 05:52:16;;;;;;;29.13;17.17;;;-0.10;99.90;;;;;;5051562;28;20025;-52
2023/03/08 05:54:41;;;;;;;28.40;17.02;;;-0.20;99.90;;;;;;5050961;28;20110;-51
2023/03/08 05:57:07;;;;;;;31.65;16.33;;;-0.20;99.90;;;;;;5050826;28;20029;-52
2023/03/08 05:59:32;;;;;;;28.80;16.02;;;-0.10;99.90;;;;;;5050479;28;20025;-52
2023/03/08 06:01:58;;;;;;;37.78;16.70;;;-0.20;99.90;;;;;;5051217;28;20368;-54
2023/03/08 06:04:24;;;;;;;37.70;17.67;;;-0.10;99.90;;;;;;5050489;28;20079;-54
2023/03/08 06:06:49;;;;;;;29.67;15.95;;;-0.10;99.90;;;;;;5050479;28;20029;-53
2023/03/08 06:09:15;;;;;;;28.98;17.20;;;-0.10;99.90;;;;;;5051027;28;20017;-54
2023/03/08 06:11:41;;;;;;;30.27;16.48;;;-0.10;99.90;;;;;;5050432;28;20041;-55
2023/03/08 06:14:06;;;;;;;30.23;18.48;;;0.00;99.90;;;;;;5050572;28;20095;-52
2023/03/08 06:16:32;;;;;;;26.90;16.60;;;0.10;99.90;;;;;;5050248;28;20025;-54
2023/03/08 06:18:59;;;;;;;24.48;15.93;;;0.10;99.90;;;;;;5050679;28;20021;-56
2023/03/08 06:21:25;;;;;;;31.63;17.98;;;0.20;99.90;;;;;;5050604;28;20078;-52
2023/03/08 06:23:52;;;;;;;27.33;16.15;;;0.20;99.90;;;;;;5050489;28;20017;-52
2023/03/08 06:26:18;;;;;;;40.22;17.30;;;0.30;99.90;;;;;;5050880;28;20029;-53
2023/03/08 06:28:44;;;;;;;36.25;21.65;;;0.40;99.90;;;;;;5050557;28;20033;-53
2023/03/08 06:31:14;;;;;;;33.90;16.48;;;0.50;99.90;;;;;;5050792;28;20028;-55
2023/03/08 06:33:41;;;;;;;33.78;16.75;;;0.50;99.90;;;;;;5050140;28;20115;-56
2023/03/08 06:36:19;;;;;;;30.90;17.73;;;0.60;99.90;;;;;;5050654;28;20025;-52
2023/03/08 06:38:46;;;;;;;30.85;17.55;;;0.70;99.90;;;;;;5050331;28;20044;-55
2023/03/08 06:41:13;;;;;;;34.60;18.38;;;0.90;99.90;;;;;;5050610;28;20519;-54
2023/03/08 06:43:39;;;;;;;30.58;18.08;;;1.00;99.90;;;;;;5050124;28;20060;-52
2023/03/08 06:46:06;;;;;;;27.77;17.00;;;1.10;99.90;;;;;;5050548;28;20059;-55
2023/03/08 06:48:34;;;;;;;33.22;16.85;;;1.30;99.90;;;;;;5050056;28;20021;-52
2023/03/08 06:51:00;;;;;;;34.85;18.80;;;1.60;99.90;;;;;;5049625;28;20017;-52
2023/03/08 06:53:26;;;;;;;41.28;19.83;;;1.80;99.90;;;;;;5050139;28;20009;-55
2023/03/08 06:55:51;;;;;;;31.58;17.58;;;2.00;99.90;;;;;;5049542;28;20472;-55
2023/03/08 06:58:18;;;;;;;31.25;17.30;;;2.20;99.90;;;;;;5050220;28;20021;-55
2023/03/08 07:00:43;;;;;;;24.98;16.45;;;2.40;99.90;;;;;;5050256;28;20063;-56
2023/03/08 07:03:11;;;;;;;30.80;15.93;;;2.60;99.90;;;;;;5050073;28;20052;-54
2023/03/08 07:05:37;;;;;;;28.25;15.07;;;2.80;99.90;;;;;;5050043;28;20032;-52
2023/03/08 07:08:03;;;;;;;28.90;16.55;;;2.90;99.90;;;;;;5050266;28;20033;-52
2023/03/08 07:10:29;;;;;;;23.00;14.63;;;3.10;99.90;;;;;;5049869;28;20029;-52
2023/03/08 07:12:55;;;;;;;23.92;15.02;;;3.30;99.90;;;;;;5050114;28;20249;-53
2023/03/08 07:15:22;;;;;;;31.73;15.70;;;3.60;99.90;;;;;;5050048;28;20021;-54
2023/03/08 07:17:50;;;;;;;31.65;15.10;;;3.80;99.90;;;;;;5049924;28;20476;-54
2023/03/08 07:20:18;;;;;;;27.10;14.90;;;4.10;99.90;;;;;;5050004;28;20112;-53
2023/03/08 07:22:44;;;;;;;27.90;14.75;;;4.30;99.90;;;;;;5049657;28;20028;-52
2023/03/08 07:25:11;;;;;;;24.95;15.60;;;4.50;99.90;;;;;;5049977;28;20024;-52
2023/03/08 07:27:37;;;;;;;25.85;14.70;;;4.60;99.90;;;;;;5048198;28;20508;-51
2023/03/08 07:30:04;;;;;;;26.65;14.50;;;4.80;99.90;;;;;;5049971;28;20048;-52
2023/03/08 07:32:29;;;;;;;25.77;15.15;;;5.00;99.90;;;;;;5049419;28;20115;-53
2023/03/08 07:34:56;;;;;;;24.73;14.77;;;5.30;99.90;;;;;;5049522;28;20155;-52
2023/03/08 07:37:21;;;;;;;21.20;13.60;;;5.50;99.90;;;;;;5049672;28;20086;-53
2023/03/08 07:39:47;;;;;;;26.90;14.65;;;5.60;99.90;;;;;;5050254;28;20017;-51
2023/03/08 07:42:13;;;;;;;24.67;15.57;;;5.80;99.00;;;;;;5050027;28;20411;-51
2023/03/08 07:44:38;;;;;;;33.17;14.07;;;5.70;98.30;;;;;;5049784;28;20037;-51
2023/03/08 07:47:06;;;;;;;23.08;13.82;;;5.80;98.30;;;;;;5049647;28;20025;-52
2023/03/08 07:49:32;;;;;;;27.08;13.85;;;5.90;99.40;;;;;;5049326;28;20029;-51
2023/03/08 07:51:58;;;;;;;30.88;13.75;;;6.10;98.90;;;;;;5049775;28;20075;-53
2023/03/08 07:54:24;;;;;;;27.27;14.98;;;6.30;98.70;;;;;;5049755;28;20468;-54
2023/03/08 07:56:54;;;;;;;27.80;15.90;;;6.40;98.00;;;;;;5049656;28;20029;-52
2023/03/08 07:59:20;;;;;;;26.75;14.55;;;6.40;98.10;;;;;;5049659;28;20025;-51
2023/03/08 08:01:46;;;;;;;24.58;14.13;;;6.70;97.90;;;;;;5049241;28;20111;-51
2023/03/08 08:04:12;;;;;;;21.63;14.25;;;6.60;97.30;;;;;;5049832;28;20103;-52
2023/03/08 08:06:38;;;;;;;21.55;13.38;;;6.70;97.20;;;;;;5049596;28;20096;-63
2023/03/08 08:09:05;;;;;;;28.98;15.48;;;6.80;96.50;;;;;;5050315;28;20032;-51
2023/03/08 08:11:30;;;;;;;30.77;14.35;;;6.90;96.80;;;;;;5054196;28;20036;-53
2023/03/08 08:13:56;;;;;;;22.35;13.82;;;7.20;96.00;;;;;;5054083;28;20029;-54
2023/03/08 08:16:22;;;;;;;23.52;12.55;;;7.30;95.10;;;;;;5054166;28;20037;-50
2023/03/08 08:18:51;;;;;;;21.85;13.38;;;7.50;94.70;;;;;;5054314;28;20031;-56
2023/03/08 08:21:17;;;;;;;22.40;12.45;;;7.40;93.80;;;;;;5054525;28;20029;-50
2023/03/08 08:23:43;;;;;;;25.35;13.23;;;7.40;93.30;;;;;;5054157;28;20098;-51
2023/03/08 08:26:14;;;;;;;22.67;13.63;;;7.40;93.20;;;;;;5054079;28;20438;-51
2023/03/08 08:28:41;;;;;;;31.85;14.35;;;7.50;93.40;;;;;;5053895;28;20159;-53
2023/03/08 08:31:10;;;;;;;21.63;14.00;;;7.70;92.80;;;;;;5054300;28;20025;-53
2023/03/08 08:33:36;;;;;;;17.92;12.20;;;7.70;92.70;;;;;;5053811;28;20028;-53
2023/03/08 08:36:04;;;;;;;22.20;12.75;;;7.90;92.10;;;;;;5054040;28;20106;-52
2023/03/08 08:38:30;;;;;;;25.90;12.73;;;8.00;91.40;;;;;;5053545;28;20384;-53
2023/03/08 08:41:04;;;;;;;21.70;12.82;;;8.00;91.70;;;;;;5053876;28;20021;-53
2023/03/08 08:43:31;;;;;;;26.42;14.10;;;7.80;90.40;;;;;;5053914;28;20025;-52
2023/03/08 08:45:58;;;;;;;18.90;12.05;;;7.90;90.10;;;;;;5053869;28;20021;-53
2023/03/08 08:48:25;;;;;;;35.22;13.30;;;7.90;90.60;;;;;;5053698;28;20024;-52
2023/03/08 08:50:50;;;;;;;21.52;12.23;;;7.90;89.60;;;;;;5053673;28;20100;-52
2023/03/08 08:53:17;;;;;;;20.20;12.90;;;7.60;90.40;;;;;;5053771;28;20104;-54
2023/03/08 08:55:43;;;;;;;17.88;12.50;;;7.50;91.10;;;;;;5053555;28;20040;-54
2023/03/08 08:58:08;;;;;;;20.70;14.20;;;7.50;90.90;;;;;;5053625;28;20033;-53
2023/03/08 09:00:35;;;;;;;20.70;12.68;;;7.40;90.50;;;;;;5053434;28;20049;-51
2023/03/08 09:03:02;;;;;;;30.83;14.85;;;7.40;91.00;;;;;;5053543;28;20029;-51
2023/03/08 09:05:28;;;;;;;23.65;12.40;;;7.60;91.20;;;;;;5053424;28;20027;-51
2023/03/08 09:07:58;;;;;;;24.63;12.13;;;7.70;90.90;;;;;;5053972;28;20031;-51
2023/03/08 09:10:27;;;;;;;24.05;13.60;;;7.90;90.50;;;;;;5053141;28;20027;-51
2023/03/08 09:12:53;;;;;;;24.10;13.63;;;8.00;90.10;;;;;;5053460;28;20029;-54
2023/03/08 09:15:20;;;;;;;29.27;11.90;;;8.20;89.50;;;;;;5052145;28;20028;-52
2023/03/08 09:17:46;;;;;;;23.20;13.80;;;8.20;87.70;;;;;;5053351;28;20519;-51
2023/03/08 09:20:12;;;;;;;22.65;13.55;;;8.30;87.50;;;;;;5053356;28;20373;-51
2023/03/08 09:22:39;;;;;;;18.20;11.73;;;8.40;87.80;;;;;;5053218;28;20023;-51
2023/03/08 09:25:06;;;;;;;18.38;11.20;;;8.60;86.70;;;;;;5053313;28;20032;-52
2023/03/08 09:27:32;;;;;;;17.30;11.95;;;8.90;84.60;;;;;;5053097;28;20025;-51
2023/03/08 09:29:57;;;;;;;21.90;11.27;;;9.00;86.40;;;;;;5053063;28;20621;-52
2023/03/08 09:32:24;;;;;;;23.55;12.23;;;9.10;83.10;;;;;;5053004;28;20029;-51
2023/03/08 09:34:50;;;;;;;16.30;11.50;;;9.30;85.10;;;;;;5053071;28;20025;-52
2023/03/08 09:37:16;;;;;;;15.25;10.95;;;9.50;83.30;;;;;;5052926;28;20029;-52
2023/03/08 09:39:42;;;;;;;17.63;11.30;;;9.50;81.80;;;;;;5052715;28;20029;-53
2023/03/08 09:42:19;;;;;;;19.50;14.13;;;9.60;81.30;;;;;;5052930;28;20017;-51
2023/03/08 09:45:10;;;;;;;28.60;11.93;;;9.70;80.80;;;;;;5052575;28;20025;-53
2023/03/08 09:47:47;;;;;;;21.08;12.30;;;9.60;81.50;;;;;;5052637;28;20033;-53
2023/03/08 09:50:22;;;;;;;56.33;15.18;;;9.80;80.90;;;;;;5052280;28;20362;-52
2023/03/08 09:52:58;;;;;;;68.78;37.90;;;10.10;79.70;;;;;;5052630;28;20028;-51
2023/03/08 09:55:31;;;;;;;37.72;13.65;;;10.40;80.10;;;;;;5052564;28;20017;-52
2023/03/08 09:58:02;;;;;;;20.27;10.93;;;10.40;78.20;;;;;;5052644;28;20177;-53
2023/03/08 10:00:31;;;;;;;17.30;11.55;;;10.70;76.20;;;;;;5052099;28;20040;-51
2023/03/08 10:03:26;;;;;;;18.13;11.38;;;10.80;78.70;;;;;;5052348;28;20041;-51
2023/03/08 10:06:02;;;;;;;27.27;10.95;;;10.80;76.60;;;;;;5052087;28;20021;-52
2023/03/08 10:08:48;;;;;;;17.52;10.27;;;11.30;78.00;;;;;;5051849;28;20075;-54
2023/03/08 10:11:31;;;;;;;16.60;11.90;;;11.70;76.00;;;;;;5052213;28;20114;-52
2023/03/08 10:14:05;;;;;;;20.33;11.50;;;11.60;73.30;;;;;;5052332;28;20389;-52
2023/03/08 10:16:36;;;;;;;19.02;11.70;;;11.80;71.50;;;;;;5051920;28;20052;-51
2023/03/08 10:19:11;;;;;;;19.80;11.60;;;11.80;70.80;;;;;;5051831;28;20032;-52
2023/03/08 10:21:39;;;;;;;17.98;11.45;;;11.80;70.20;;;;;;5052124;28;20029;-53
2023/03/08 10:24:27;;;;;;;15.32;10.35;;;11.60;70.10;;;;;;5052199;28;20441;-51
2023/03/08 10:26:59;;;;;;;15.68;11.25;;;12.10;71.60;;;;;;5052044;28;20033;-52
2023/03/08 10:29:24;;;;;;;23.42;10.60;;;12.10;70.90;;;;;;5051786;28;20025;-54
2023/03/08 10:31:50;;;;;;;16.65;10.18;;;12.10;68.70;;;;;;5051365;28;20028;-52
2023/03/08 10:34:29;;;;;;;18.85;10.15;;;12.30;67.50;;;;;;5050732;28;20064;-53
2023/03/08 10:37:03;;;;;;;14.30;10.43;;;12.30;66.40;;;;;;5052077;28;20380;-53
2023/03/08 10:39:51;;;;;;;16.35;10.23;;;12.50;66.70;;;;;;5051852;28;20104;-52
2023/03/08 10:42:20;;;;;;;17.10;11.73;;;12.70;64.30;;;;;;5051727;28;20028;-52
2023/03/08 10:45:12;;;;;;;20.73;11.88;;;13.00;64.30;;;;;;5051775;28;20028;-53
2023/03/08 10:47:38;;;;;;;20.83;11.27;;;13.40;62.70;;;;;;5051472;28;20032;-54
2023/03/08 10:50:17;;;;;;;17.13;11.30;;;14.40;62.10;;;;;;5051720;28;20029;-53
2023/03/08 10:52:44;;;;;;;23.38;11.27;;;15.10;59.80;;;;;;5051531;28;20040;-51
2023/03/08 10:55:16;;;;;;;14.90;9.85;;;15.20;57.40;;;;;;5051491;28;20043;-54
2023/03/08 10:57:52;;;;;;;13.75;8.68;;;15.60;56.30;;;;;;5051394;28;20040;-54
2023/03/08 11:00:30;;;;;;;14.05;9.55;;;15.10;53.20;;;;;;5051669;28;20021;-52
2023/03/08 11:03:15;;;;;;;14.85;10.35;;;15.10;55.00;;;;;;5051386;28;20108;-52
2023/03/08 11:06:02;;;;;;;14.00;9.40;;;15.40;53.70;;;;;;5051324;28;20108;-53
2023/03/08 11:08:58;;;;;;;17.55;9.23;;;15.10;53.60;;;;;;5051371;28;20098;-54
2023/03/08 11:11:25;;;;;;;18.77;11.10;;;15.10;54.50;;;;;;5050903;28;20129;-53
2023/03/08 11:13:52;;;;;;;16.98;10.98;;;14.00;54.40;;;;;;5051197;28;20025;-52
2023/03/08 11:16:29;;;;;;;15.88;10.73;;;14.00;55.70;;;;;;5051405;28;20060;-52
2023/03/08 11:19:02;;;;;;;16.60;10.23;;;13.20;55.90;;;;;;5051563;28;20384;-50
2023/03/08 11:21:59;;;;;;;29.40;11.07;;;13.00;58.60;;;;;;5051230;28;20060;-51
2023/03/08 11:24:39;;;;;;;14.32;11.23;;;12.80;60.50;;;;;;5025704;28;20416;-55
2023/03/08 11:27:42;;;;;;;19.00;10.52;;;12.50;60.60;;;;;;5039813;28;20487;-54
2023/03/08 11:30:25;;;;;;;16.45;9.50;;;12.30;59.10;;;;;;5040577;28;20029;-52
2023/03/08 11:33:00;;;;;;;17.30;10.65;;;12.00;61.10;;;;;;5040862;28;20032;-51
2023/03/08 11:35:47;;;;;;;21.77;11.30;;;12.00;62.30;;;;;;5037306;28;20477;-52
2023/03/08 11:38:26;;;;;;;15.45;10.98;;;11.80;62.40;;;;;;5039798;28;20033;-51
2023/03/08 11:41:13;;;;;;;20.13;11.85;;;11.80;63.50;;;;;;5039371;28;20078;-50
2023/03/08 11:43:50;;;;;;;14.48;10.77;;;11.50;63.10;;;;;;5040431;28;20102;-53
2023/03/08 11:46:55;;;;;;;16.25;9.63;;;11.40;63.90;;;;;;5043309;28;20087;-51
2023/03/08 11:49:41;;;;;;;20.90;10.60;;;11.20;62.70;;;;;;5042967;28;20076;-51
2023/03/08 11:52:36;;;;;;;14.40;9.85;;;11.10;63.50;;;;;;5043988;28;20041;-50
2023/03/08 11:55:35;;;;;;;15.10;10.23;;;11.10;63.40;;;;;;5037334;28;20041;-50
2023/03/08 11:58:22;;;;;;;18.17;10.90;;;10.80;63.60;;;;;;5043445;28;20048;-51
2023/03/08 12:00:52;;;;;;;20.50;10.65;;;10.70;65.20;;;;;;5043489;28;20033;-51
2023/03/08 12:03:22;;;;;;;20.23;11.63;;;10.60;65.10;;;;;;5024054;28;20029;-52
2023/03/08 12:05:57;;;;;;;26.38;13.73;;;10.50;66.00;;;;;;5043560;28;20029;-53
2023/03/08 12:09:03;;;;;;;27.10;16.35;;;10.40;65.40;;;;;;5044099;28;20029;-52
2023/03/08 12:11:51;;;;;;;20.52;14.07;;;10.40;66.00;;;;;;5043098;28;20037;-50
2023/03/08 12:14:29;;;;;;;19.38;14.23;;;10.20;65.60;;;;;;5043492;28;20033;-56
2023/03/08 12:17:18;;;;;;;17.38;14.55;;;10.00;66.40;;;;;;5044071;28;20032;-52
2023/03/08 12:19:49;;;;;;;15.45;12.80;;;10.10;66.90;;;;;;5043835;28;20426;-52
2023/03/08 12:22:43;;;;;;;25.38;16.50;;;10.10;68.00;;;;;;5043999;28;20017;-51
2023/03/08 12:25:24;;;;;;;26.65;19.15;;;10.10;68.00;;;;;;5043578;28;20135;-51
2023/03/08 12:28:23;;;;;;;21.77;12.02;;;10.20;67.40;;;;;;5043956;28;20033;-52
2023/03/08 12:31:07;;;;;;;18.35;11.38;;;10.20;67.20;;;;;;5043617;28;20521;-54
2023/03/08 12:33:33;;;;;;;15.65;11.27;;;10.30;66.50;;;;;;5043358;28;20132;-53
2023/03/08 12:36:03;;;;;;;17.25;11.50;;;10.10;65.60;;;;;;5043227;28;20032;-52
2023/03/08 12:38:32;;;;;;;23.70;11.07;;;10.00;66.40;;;;;;5043465;28;20582;-52
2023/03/08 12:40:58;;;;;;;19.70;13.65;;;9.90;66.30;;;;;;5042465;28;20364;-51
2023/03/08 12:43:24;;;;;;;20.83;13.23;;;9.90;66.40;;;;;;5043181;28;20021;-52
2023/03/08 12:46:15;;;;;;;18.55;13.05;;;10.00;67.00;;;;;;5043661;28;20029;-51
2023/03/08 12:48:44;;;;;;;16.67;11.73;;;10.00;67.80;;;;;;5052314;28;20094;-52